createdAt,value
2022-08-16T00:00:38.764Z,100.00
2022-08-16T00:05:48.494Z,100.00
2022-08-16T00:10:54.382Z,100.00
2022-08-16T00:15:58.145Z,100.00
2022-08-16T00:21:01.804Z,100.00
2022-08-16T00:26:35.066Z,100.00
2022-08-16T00:31:59.903Z,100.00
2022-08-16T00:36:57.173Z,100.00
2022-08-16T00:42:03.520Z,100.00
2022-08-16T00:47:11.370Z,100.00
2022-08-16T00:52:30.361Z,100.00
2022-08-16T00:57:58.851Z,100.00
2022-08-16T01:03:05.249Z,100.00
2022-08-16T01:08:35.197Z,100.00
2022-08-16T01:13:40.474Z,100.00
2022-08-16T01:18:48.083Z,100.00
2022-08-16T01:24:06.414Z,100.00
2022-08-16T01:29:57.263Z,100.00
2022-08-16T01:35:00.340Z,100.00
2022-08-16T01:40:07.623Z,100.00
2022-08-16T01:45:11.998Z,100.00
2022-08-16T01:50:42.838Z,100.00
2022-08-16T01:55:44.207Z,100.00
2022-08-16T02:00:58.730Z,100.00
2022-08-16T02:06:08.009Z,100.00
2022-08-16T02:11:14.153Z,100.00
2022-08-16T02:16:20.451Z,100.00
2022-08-16T02:21:31.086Z,100.00
2022-08-16T02:26:37.188Z,100.00
2022-08-16T02:32:02.544Z,100.00
2022-08-16T02:37:05.537Z,100.00
2022-08-16T02:42:13.578Z,100.00
2022-08-16T02:47:25.447Z,100.00
2022-08-16T02:52:30.049Z,100.00
2022-08-16T02:57:54.031Z,100.00
2022-08-16T03:03:01.250Z,100.00
2022-08-16T03:08:49.831Z,100.00
2022-08-16T03:13:40.537Z,100.00
2022-08-16T03:18:49.964Z,100.00
2022-08-16T03:23:57.931Z,100.00
2022-08-16T03:29:07.723Z,100.00
2022-08-16T03:34:14.744Z,100.00
2022-08-16T03:39:24.179Z,100.00
2022-08-16T03:44:44.238Z,100.00
2022-08-16T03:49:55.590Z,100.00
2022-08-16T03:55:02.942Z,100.00
2022-08-16T04:00:20.433Z,100.00
2022-08-16T04:05:49.101Z,100.00
2022-08-16T04:10:58.929Z,100.00
2022-08-16T04:16:26.586Z,100.00
2022-08-16T04:21:47.208Z,100.00
2022-08-16T04:27:00.902Z,100.00
2022-08-16T04:32:10.071Z,100.00
2022-08-16T04:37:18.051Z,100.00
2022-08-16T04:42:30.466Z,100.00
2022-08-16T04:47:45.006Z,100.00
2022-08-16T04:53:22.190Z,100.00
2022-08-16T04:58:43.670Z,100.00
2022-08-16T05:04:00.808Z,100.00
2022-08-16T05:09:22.880Z,100.00
2022-08-16T05:14:45.459Z,100.00
2022-08-16T05:20:39.552Z,100.00
2022-08-16T05:25:41.024Z,100.00
2022-08-16T05:30:56.299Z,100.00
2022-08-16T05:36:17.993Z,100.00
2022-08-16T05:41:31.572Z,100.00
2022-08-16T05:46:43.757Z,100.00
2022-08-16T05:51:57.750Z,100.00
2022-08-16T05:57:20.699Z,100.00
2022-08-16T06:02:43.058Z,100.00
2022-08-16T06:08:31.896Z,100.00
2022-08-16T06:13:48.658Z,100.00
2022-08-16T06:19:08.082Z,100.00
2022-08-16T06:24:53.594Z,100.00
2022-08-16T06:29:49.926Z,100.00
2022-08-16T06:35:02.458Z,100.00
2022-08-16T06:40:15.968Z,100.00
2022-08-16T06:45:30.698Z,100.00
2022-08-16T06:50:45.127Z,100.00
2022-08-16T06:55:57.581Z,100.00
2022-08-16T07:01:09.585Z,100.00
2022-08-16T07:06:26.786Z,100.00
2022-08-16T07:11:46.111Z,100.00
2022-08-16T07:17:19.982Z,100.00
2022-08-16T07:22:52.469Z,100.00
2022-08-16T07:28:11.823Z,100.00
2022-08-16T07:33:52.409Z,100.00
2022-08-16T07:38:50.533Z,100.00
2022-08-16T07:44:00.604Z,100.00
2022-08-16T07:49:12.880Z,100.00
2022-08-16T07:54:37.902Z,100.00
2022-08-16T07:59:51.971Z,100.00
2022-08-16T08:05:00.039Z,100.00
2022-08-16T08:10:14.077Z,100.00
2022-08-16T08:15:53.128Z,100.00
2022-08-16T08:21:01.175Z,100.00
2022-08-16T08:26:17.415Z,100.00
2022-08-16T08:31:28.279Z,100.00
2022-08-16T08:36:37.651Z,100.00
2022-08-16T08:41:58.628Z,100.00
2022-08-16T08:47:11.606Z,97.93
2022-08-16T08:52:34.755Z,93.75
2022-08-16T08:57:49.063Z,89.13
2022-08-16T09:02:59.431Z,87.38
2022-08-16T09:08:17.360Z,87.27
2022-08-16T09:13:32.854Z,90.06
2022-08-16T09:18:43.094Z,87.53
2022-08-16T09:23:52.893Z,91.05
2022-08-16T09:29:14.616Z,97.13
2022-08-16T09:34:24.141Z,100.00
2022-08-16T09:39:41.052Z,100.00
2022-08-16T09:45:10.885Z,100.00
2022-08-16T09:50:22.713Z,100.00
2022-08-16T09:55:31.284Z,100.00
2022-08-16T10:00:44.453Z,100.00
2022-08-16T10:05:53.969Z,100.00
2022-08-16T10:11:24.633Z,100.00
2022-08-16T10:16:31.968Z,100.00
2022-08-16T10:21:40.390Z,100.00
2022-08-16T10:27:20.843Z,100.00
2022-08-16T10:32:14.904Z,100.00
2022-08-16T10:37:32.728Z,100.00
2022-08-16T10:42:43.591Z,100.00
2022-08-16T10:48:03.178Z,100.00
2022-08-16T10:53:12.568Z,100.00
2022-08-16T10:58:19.647Z,100.00
2022-08-16T11:03:43.090Z,100.00
2022-08-16T11:09:20.996Z,100.00
2022-08-16T11:14:20.749Z,100.00
2022-08-16T11:19:28.347Z,100.00
2022-08-16T11:24:42.477Z,100.00
2022-08-16T11:29:55.107Z,100.00
2022-08-16T11:35:13.593Z,100.00
2022-08-16T11:40:32.283Z,100.00
2022-08-16T11:45:42.470Z,100.00
2022-08-16T11:50:50.129Z,100.00
2022-08-16T11:55:59.524Z,100.00
2022-08-16T12:01:07.966Z,100.00
2022-08-16T12:06:30.645Z,100.00
2022-08-16T12:11:39.421Z,100.00
2022-08-16T12:16:53.593Z,100.00
2022-08-16T12:22:05.881Z,100.00
2022-08-16T12:27:28.768Z,100.00
2022-08-16T12:32:42.141Z,100.00
2022-08-16T12:37:53.381Z,100.00
2022-08-16T12:43:05.716Z,100.00
2022-08-16T12:48:33.156Z,100.00
2022-08-16T12:53:41.303Z,100.00
2022-08-16T12:58:52.183Z,100.00
2022-08-16T13:04:12.156Z,100.00
2022-08-16T13:09:30.875Z,100.00
2022-08-16T13:14:42.046Z,100.00
2022-08-16T13:20:08.178Z,100.00
2022-08-16T13:25:21.238Z,99.75
2022-08-16T13:30:36.864Z,91.48
2022-08-16T13:35:55.737Z,80.41
2022-08-16T13:41:09.347Z,79.35
2022-08-16T13:46:17.576Z,93.40
2022-08-16T13:51:25.561Z,89.37
2022-08-16T13:56:39.994Z,89.00
2022-08-16T14:01:55.367Z,91.24
2022-08-16T14:07:02.820Z,87.83
2022-08-16T14:12:18.078Z,86.28
2022-08-16T14:17:23.731Z,89.76
2022-08-16T14:22:31.695Z,92.67
2022-08-16T14:27:42.369Z,94.88
2022-08-16T14:32:51.145Z,99.39
2022-08-16T14:37:57.175Z,100.00
2022-08-16T14:43:06.933Z,100.00
2022-08-16T14:48:12.486Z,100.00
2022-08-16T14:53:15.921Z,100.00
2022-08-16T14:58:35.101Z,100.00
2022-08-16T15:03:44.501Z,100.00
2022-08-16T15:08:48.700Z,100.00
2022-08-16T15:13:55.045Z,100.00
2022-08-16T15:19:03.471Z,100.00
2022-08-16T15:24:07.399Z,100.00
2022-08-16T15:29:20.967Z,100.00
2022-08-16T15:34:26.535Z,100.00
2022-08-16T15:39:39.359Z,100.00
2022-08-16T15:44:52.225Z,100.00
2022-08-16T15:49:59.058Z,100.00
2022-08-16T15:55:13.056Z,100.00
2022-08-16T16:00:28.470Z,100.00
2022-08-16T16:05:33.654Z,100.00
2022-08-16T16:10:39.441Z,100.00
2022-08-16T16:15:45.968Z,100.00
2022-08-16T16:20:54.177Z,99.83
2022-08-16T16:25:59.226Z,98.39
2022-08-16T16:31:12.173Z,100.00
2022-08-16T16:36:22.246Z,100.00
2022-08-16T16:41:30.626Z,99.47
2022-08-16T16:46:40.899Z,100.00
2022-08-16T16:51:51.343Z,99.25
2022-08-16T16:56:55.877Z,100.00
2022-08-16T17:02:41.821Z,100.00
2022-08-16T17:07:33.570Z,100.00
2022-08-16T17:12:46.784Z,100.00
2022-08-16T17:17:59.775Z,100.00
2022-08-16T17:23:06.953Z,100.00
2022-08-16T17:28:59.113Z,100.00
2022-08-16T17:33:54.587Z,100.00
2022-08-16T17:39:01.905Z,100.00
2022-08-16T17:44:08.758Z,100.00
2022-08-16T17:49:12.594Z,100.00
2022-08-16T17:54:20.568Z,100.00
2022-08-16T17:59:40.544Z,100.00
2022-08-16T18:04:49.560Z,100.00
2022-08-16T18:09:55.398Z,100.00
2022-08-16T18:15:00.204Z,100.00
2022-08-16T18:20:05.951Z,100.00
2022-08-16T18:25:11.302Z,100.00
2022-08-16T18:30:17.616Z,100.00
2022-08-16T18:35:22.451Z,100.00
2022-08-16T18:40:28.792Z,100.00
2022-08-16T18:45:36.639Z,100.00
2022-08-16T18:51:03.130Z,100.00
2022-08-16T18:56:08.557Z,100.00
2022-08-16T19:01:12.174Z,100.00
2022-08-16T19:06:17.087Z,100.00
2022-08-16T19:11:25.698Z,100.00
2022-08-16T19:16:29.363Z,100.00
2022-08-16T19:21:33.047Z,100.00
2022-08-16T19:26:38.776Z,100.00
2022-08-16T19:31:42.628Z,100.00
2022-08-16T19:36:46.340Z,100.00
2022-08-16T19:41:54.263Z,100.00
2022-08-16T19:46:58.997Z,100.00
2022-08-16T19:52:11.356Z,100.00
2022-08-16T19:57:17.743Z,100.00
2022-08-16T20:02:36.403Z,100.00
2022-08-16T20:07:40.463Z,100.00
2022-08-16T20:13:02.200Z,100.00
2022-08-16T20:18:09.547Z,100.00
2022-08-16T20:23:28.469Z,100.00
2022-08-16T20:28:52.583Z,100.00
2022-08-16T20:33:57.305Z,100.00
2022-08-16T20:39:03.728Z,100.00
2022-08-16T20:44:10.237Z,100.00
2022-08-16T20:49:13.999Z,100.00
2022-08-16T20:54:17.715Z,100.00
2022-08-16T20:59:22.934Z,100.00
2022-08-16T21:04:29.173Z,100.00
2022-08-16T21:09:35.027Z,100.00
2022-08-16T21:14:42.991Z,100.00
2022-08-16T21:19:46.962Z,100.00
2022-08-16T21:24:53.859Z,100.00
2022-08-16T21:29:59.414Z,100.00
2022-08-16T21:35:05.921Z,100.00
2022-08-16T21:40:12.602Z,100.00
2022-08-16T21:45:17.996Z,100.00
2022-08-16T21:50:21.458Z,100.00
2022-08-16T21:55:26.482Z,100.00
2022-08-16T22:00:32.226Z,100.00
2022-08-16T22:05:36.689Z,100.00
2022-08-16T22:11:05.093Z,100.00
2022-08-16T22:16:16.958Z,100.00
2022-08-16T22:21:22.319Z,100.00
2022-08-16T22:26:31.329Z,100.00
2022-08-16T22:31:40.440Z,100.00
2022-08-16T22:36:44.997Z,100.00
2022-08-16T22:41:50.578Z,100.00
2022-08-16T22:46:56.728Z,100.00
2022-08-16T22:52:05.937Z,100.00
2022-08-16T22:57:10.062Z,100.00
2022-08-16T23:02:15.375Z,100.00
2022-08-16T23:07:19.293Z,100.00
2022-08-16T23:12:26.265Z,100.00
2022-08-16T23:17:36.202Z,100.00
2022-08-16T23:23:20.765Z,100.00
2022-08-16T23:28:10.959Z,100.00
2022-08-16T23:33:18.871Z,100.00
2022-08-16T23:38:38.400Z,100.00
2022-08-16T23:43:44.086Z,100.00
2022-08-16T23:49:58.907Z,100.00
2022-08-16T23:54:13.480Z,100.00
2022-08-16T23:59:17.501Z,100.00
